Time;durP1;ratioP1;P1;durP2;ratioP2;P2;SDS_P1;SDS_P2;PMS_P1;PMS_P2;Temp;Humidity;BMP_temperature;BMP_pressure;BME280_temperature;BME280_humidity;BME280_pressure;Samples;Min_cycle;Max_cycle;Signal;HPM_P1;HPM_P2
2021/11/28 00:00:50;;;;;;;7.97;4.77;;;5.80;72.30;;;;;;5057086;28;20032;-80
2021/11/28 00:03:18;;;;;;;6.23;3.97;;;5.80;72.20;;;;;;5072536;28;20040;-81
2021/11/28 00:05:56;;;;;;;5.70;4.03;;;5.80;72.10;;;;;;5063395;28;20035;-80
2021/11/28 00:16:01;;;;;;;3.97;2.55;;;5.70;72.10;;;;;;5065375;28;20107;-81
2021/11/28 00:18:29;;;;;;;4.18;2.90;;;5.70;72.20;;;;;;5055241;28;20049;-80
2021/11/28 00:20:56;;;;;;;4.53;2.90;;;5.70;72.30;;;;;;5068395;28;20483;-81
2021/11/28 00:23:22;;;;;;;4.07;2.80;;;5.70;72.30;;;;;;5064175;28;20060;-81
2021/11/28 00:25:48;;;;;;;3.73;2.47;;;5.70;72.30;;;;;;5070832;28;20021;-80
2021/11/28 00:28:16;;;;;;;3.80;2.73;;;5.60;72.40;;;;;;5063834;28;20024;-81
2021/11/28 00:30:42;;;;;;;5.50;2.87;;;5.60;72.40;;;;;;5062794;28;20047;-81
2021/11/28 00:33:08;;;;;;;4.93;2.70;;;5.70;72.50;;;;;;5067036;28;20463;-81
2021/11/28 00:35:33;;;;;;;4.27;3.17;;;5.70;72.50;;;;;;5078561;28;20038;-81
2021/11/28 00:37:59;;;;;;;4.60;2.97;;;5.70;72.40;;;;;;5066783;28;20503;-81
2021/11/28 00:40:25;;;;;;;6.37;3.23;;;5.60;72.40;;;;;;5066127;28;20028;-81
2021/11/28 00:42:51;;;;;;;4.23;3.43;;;5.60;72.40;;;;;;5065374;28;20033;-80
2021/11/28 00:45:17;;;;;;;4.50;3.73;;;5.60;72.40;;;;;;5070845;28;20079;-80
2021/11/28 00:47:42;;;;;;;5.77;4.17;;;5.60;72.30;;;;;;5066782;28;20045;-80
2021/11/28 00:52:35;;;;;;;6.67;4.23;;;5.60;72.50;;;;;;5067720;28;20055;-80
2021/11/28 00:55:02;;;;;;;6.70;4.13;;;5.60;72.50;;;;;;5072877;28;20059;-81
2021/11/28 00:57:28;;;;;;;6.97;4.53;;;5.60;72.50;;;;;;5071081;28;20048;-81
2021/11/28 00:59:54;;;;;;;4.83;3.93;;;5.60;72.50;;;;;;5069883;28;20047;-81
2021/11/28 01:02:21;;;;;;;4.50;3.40;;;5.60;72.50;;;;;;5068290;28;20052;-81
2021/11/28 01:04:47;;;;;;;4.90;3.03;;;5.60;72.60;;;;;;5064381;28;20036;-81
2021/11/28 01:07:13;;;;;;;3.50;2.53;;;5.60;72.60;;;;;;5073455;28;20032;-81
2021/11/28 01:09:39;;;;;;;3.17;1.50;;;5.60;72.50;;;;;;5068193;28;20137;-81
2021/11/28 01:12:07;;;;;;;3.73;1.80;;;5.60;72.40;;;;;;5065589;28;20476;-81
2021/11/28 01:14:33;;;;;;;3.30;2.20;;;5.60;72.40;;;;;;5070019;28;20029;-81
2021/11/28 01:16:59;;;;;;;3.63;2.23;;;5.60;72.40;;;;;;5056071;28;20040;-81
2021/11/28 01:19:25;;;;;;;3.00;2.00;;;5.60;72.30;;;;;;5066342;28;20535;-80
2021/11/28 01:22:06;;;;;;;2.57;2.00;;;5.50;72.60;;;;;;5067939;28;20024;-81
2021/11/28 01:24:32;;;;;;;4.10;2.83;;;5.60;72.60;;;;;;5071128;28;20098;-81
2021/11/28 01:26:59;;;;;;;3.90;2.90;;;5.60;72.40;;;;;;5065230;28;20024;-81
2021/11/28 01:29:25;;;;;;;5.27;2.90;;;5.50;72.40;;;;;;5069096;28;20024;-81
2021/11/28 01:31:51;;;;;;;4.03;3.07;;;5.50;72.60;;;;;;5073404;28;20029;-81
2021/11/28 01:34:17;;;;;;;5.07;3.40;;;5.50;72.70;;;;;;5068066;28;20032;-81
2021/11/28 01:36:43;;;;;;;5.70;3.13;;;5.50;72.80;;;;;;5063671;28;20024;-81
2021/11/28 01:39:10;;;;;;;5.70;3.77;;;5.50;72.80;;;;;;5060087;28;20025;-81
2021/11/28 01:41:37;;;;;;;6.20;2.83;;;5.50;72.80;;;;;;5066547;28;20502;-81
2021/11/28 01:44:04;;;;;;;3.57;2.67;;;5.50;72.80;;;;;;5066297;28;20037;-81
2021/11/28 01:46:30;;;;;;;3.90;2.90;;;5.50;72.80;;;;;;5070325;28;20025;-81
2021/11/28 01:48:56;;;;;;;4.83;3.00;;;5.50;72.80;;;;;;5064368;28;20021;-81
2021/11/28 01:51:22;;;;;;;5.47;3.37;;;5.50;72.80;;;;;;5063357;28;20035;-81
2021/11/28 01:53:50;;;;;;;3.80;2.50;;;5.50;72.90;;;;;;5067777;28;20021;-81
2021/11/28 01:56:16;;;;;;;3.13;2.20;;;5.50;73.00;;;;;;5063488;28;20024;-81
2021/11/28 01:58:43;;;;;;;2.83;2.03;;;5.50;72.90;;;;;;5057870;28;20163;-81
2021/11/28 02:01:12;;;;;;;4.37;2.53;;;5.50;72.90;;;;;;5072851;28;20029;-80
2021/11/28 02:03:40;;;;;;;2.33;1.60;;;5.40;72.90;;;;;;5072481;28;20039;-80
2021/11/28 02:06:08;;;;;;;3.80;2.00;;;5.40;73.60;;;;;;5068169;28;20427;-81
2021/11/28 02:08:34;;;;;;;3.27;1.90;;;5.40;73.00;;;;;;5068843;28;20040;-80
2021/11/28 02:10:59;;;;;;;5.10;2.30;;;5.50;73.00;;;;;;5061357;28;20021;-81
2021/11/28 02:13:26;;;;;;;3.40;2.30;;;5.50;73.00;;;;;;5066924;28;20013;-80
2021/11/28 02:15:52;;;;;;;2.97;2.07;;;5.50;73.00;;;;;;5070955;28;20044;-81
2021/11/28 02:18:18;;;;;;;4.73;2.00;;;5.40;73.00;;;;;;5060657;28;20020;-81
2021/11/28 02:20:49;;;;;;;3.30;2.30;;;5.40;73.10;;;;;;5062854;28;20492;-81
2021/11/28 02:23:15;;;;;;;4.03;2.23;;;5.40;73.10;;;;;;5066958;28;20031;-80
2021/11/28 02:25:42;;;;;;;4.27;2.13;;;5.40;73.20;;;;;;5066916;28;20377;-80
2021/11/28 02:28:09;;;;;;;3.30;1.87;;;5.40;73.80;;;;;;5058627;28;20033;-81
2021/11/28 02:30:34;;;;;;;4.07;1.97;;;5.40;73.20;;;;;;5055871;28;20028;-81
2021/11/28 02:33:01;;;;;;;5.10;1.90;;;5.40;73.30;;;;;;5070461;28;20371;-81
2021/11/28 02:35:30;;;;;;;3.10;2.10;;;5.40;73.20;;;;;;5057454;28;20029;-81
2021/11/28 02:37:56;;;;;;;3.57;2.17;;;5.40;73.20;;;;;;5062396;28;20021;-80
2021/11/28 02:40:24;;;;;;;2.50;1.93;;;5.40;73.20;;;;;;5060915;28;20142;-81
2021/11/28 02:42:51;;;;;;;4.30;2.23;;;5.40;73.20;;;;;;5068379;28;20491;-81
2021/11/28 02:45:18;;;;;;;3.83;2.40;;;5.40;73.30;;;;;;5062183;28;20040;-81
2021/11/28 02:47:44;;;;;;;3.20;2.50;;;5.40;73.30;;;;;;5060907;28;20467;-81
2021/11/28 02:50:13;;;;;;;4.10;2.33;;;5.40;73.20;;;;;;5069870;28;20082;-81
2021/11/28 02:52:41;;;;;;;4.33;3.07;;;5.40;73.30;;;;;;5066318;28;20035;-81
2021/11/28 02:55:07;;;;;;;3.97;2.80;;;5.40;73.40;;;;;;5059425;28;20032;-81
2021/11/28 02:57:33;;;;;;;3.00;2.40;;;5.40;73.50;;;;;;5063635;28;20094;-81
2021/11/28 02:59:59;;;;;;;6.37;2.70;;;5.40;73.30;;;;;;5054973;28;20075;-81
2021/11/28 03:02:26;;;;;;;3.30;2.50;;;5.30;73.20;;;;;;5065252;28;20033;-80
2021/11/28 03:04:53;;;;;;;4.30;2.93;;;5.30;73.30;;;;;;5058394;28;20035;-81
2021/11/28 03:07:20;;;;;;;5.40;2.87;;;5.40;73.40;;;;;;5074483;28;20021;-80
2021/11/28 03:09:46;;;;;;;3.30;2.47;;;5.40;73.50;;;;;;5062609;28;20020;-81
2021/11/28 03:12:12;;;;;;;3.83;2.70;;;5.40;73.50;;;;;;5063039;28;20032;-81
2021/11/28 03:14:39;;;;;;;5.10;2.87;;;5.40;73.40;;;;;;5056563;28;20024;-81
2021/11/28 03:17:05;;;;;;;4.00;2.70;;;5.40;73.40;;;;;;5051032;28;20400;-80
2021/11/28 03:19:31;;;;;;;6.27;2.70;;;5.40;73.40;;;;;;5066598;28;20073;-81
2021/11/28 03:21:57;;;;;;;4.30;3.07;;;5.40;73.40;;;;;;5065428;28;20028;-81
2021/11/28 03:24:23;;;;;;;4.27;3.20;;;5.40;73.40;;;;;;5066790;28;20029;-81
2021/11/28 04:52:39;;;;;;;3.17;1.77;;;5.30;73.80;;;;;;5777026;23;20094;-82
2021/11/28 04:55:08;;;;;;;2.93;1.73;;;5.30;73.70;;;;;;4983950;28;20367;-82
2021/11/28 04:57:34;;;;;;;2.73;1.60;;;5.30;73.70;;;;;;4959825;28;20073;-82
2021/11/28 05:00:00;;;;;;;2.77;1.60;;;5.30;73.70;;;;;;4960439;28;20062;-82
2021/11/28 05:02:26;;;;;;;3.30;2.07;;;5.30;73.70;;;;;;4984946;28;20125;-82
2021/11/28 05:04:51;;;;;;;2.57;2.00;;;5.30;73.70;;;;;;4972012;28;20609;-82
2021/11/28 05:07:17;;;;;;;3.97;1.97;;;5.30;73.80;;;;;;4966514;28;20019;-82
2021/11/28 05:09:43;;;;;;;3.53;2.13;;;5.30;73.90;;;;;;4958882;28;20026;-82
2021/11/28 05:12:09;;;;;;;4.20;2.80;;;5.30;73.70;;;;;;4972361;28;20034;-82
2021/11/28 05:14:35;;;;;;;5.20;3.43;;;5.30;73.80;;;;;;4987987;28;20042;-82
2021/11/28 05:17:00;;;;;;;5.47;3.90;;;5.30;73.90;;;;;;4955908;28;20498;-82
2021/11/28 05:19:26;;;;;;;8.10;4.47;;;5.30;73.90;;;;;;4972934;28;20082;-82
2021/11/28 05:21:52;;;;;;;5.30;3.87;;;5.30;73.90;;;;;;4958042;28;20026;-82
2021/11/28 05:24:18;;;;;;;5.73;4.17;;;5.30;74.00;;;;;;4975224;28;20026;-82
2021/11/28 05:26:43;;;;;;;6.57;3.90;;;5.30;74.00;;;;;;4996277;28;20019;-82
2021/11/28 05:29:09;;;;;;;4.27;3.60;;;5.20;73.80;;;;;;4982791;28;20019;-82
2021/11/28 05:31:35;;;;;;;4.60;3.33;;;5.20;74.00;;;;;;4969787;28;20037;-82
2021/11/28 05:34:01;;;;;;;8.40;3.70;;;5.20;74.00;;;;;;4967370;28;20093;-82
2021/11/28 05:36:26;;;;;;;6.57;3.17;;;5.30;74.10;;;;;;4975591;28;20081;-82
2021/11/28 05:38:52;;;;;;;4.50;3.13;;;5.30;74.00;;;;;;4971270;28;20034;-82
2021/11/28 05:41:20;;;;;;;11.60;5.10;;;5.20;74.00;;;;;;4959237;28;20030;-83
2021/11/28 05:43:48;;;;;;;7.20;5.10;;;5.30;74.20;;;;;;4991156;28;20118;-83
2021/11/28 05:46:14;;;;;;;8.37;4.90;;;5.30;74.10;;;;;;4983905;28;20074;-82
2021/11/28 05:48:40;;;;;;;7.00;3.87;;;5.30;74.00;;;;;;4975669;28;20023;-82
2021/11/28 05:51:06;;;;;;;4.90;3.73;;;5.30;74.00;;;;;;4967303;28;20133;-81
2021/11/28 05:53:32;;;;;;;4.87;2.57;;;5.30;74.00;;;;;;4971060;28;20505;-82
2021/11/28 05:55:58;;;;;;;3.03;2.10;;;5.30;74.00;;;;;;4985665;28;20027;-82
2021/11/28 05:58:24;;;;;;;3.17;2.50;;;5.30;73.90;;;;;;4969327;28;20550;-82
2021/11/28 06:00:50;;;;;;;3.67;2.00;;;5.30;73.90;;;;;;4986436;28;20045;-82
2021/11/28 06:03:16;;;;;;;3.97;1.80;;;5.30;73.80;;;;;;4965033;28;20496;-82
2021/11/28 06:05:45;;;;;;;2.60;1.50;;;5.30;73.90;;;;;;5004043;28;20033;-82
2021/11/28 06:08:11;;;;;;;3.03;1.77;;;5.30;73.80;;;;;;4977954;28;20034;-82
2021/11/28 06:10:36;;;;;;;2.77;1.30;;;5.30;74.30;;;;;;4965233;28;20027;-82
2021/11/28 06:13:02;;;;;;;1.30;1.20;;;5.30;73.80;;;;;;4980718;28;20113;-82
2021/11/28 06:15:28;;;;;;;2.87;1.80;;;5.20;73.90;;;;;;4966474;28;20027;-83
2021/11/28 06:17:54;;;;;;;2.10;1.60;;;5.30;73.80;;;;;;4994006;28;20026;-82
2021/11/28 06:20:20;;;;;;;1.93;1.13;;;5.30;73.80;;;;;;4976365;28;20029;-82
2021/11/28 06:22:45;;;;;;;2.33;1.23;;;5.30;74.30;;;;;;4989628;28;20366;-82
2021/11/28 06:25:11;;;;;;;1.60;1.00;;;5.20;73.60;;;;;;4971963;28;20374;-82
2021/11/28 06:27:37;;;;;;;1.77;1.27;;;5.20;73.60;;;;;;4993880;28;20417;-82
2021/11/28 06:30:05;;;;;;;1.93;1.30;;;5.30;73.50;;;;;;4987763;28;20157;-82
2021/11/28 06:32:32;;;;;;;2.17;1.60;;;5.30;73.50;;;;;;4995166;28;20037;-82
2021/11/28 06:34:58;;;;;;;2.47;1.50;;;5.30;73.50;;;;;;4971149;28;20033;-82
2021/11/28 06:37:24;;;;;;;4.37;2.63;;;5.30;73.30;;;;;;4977708;28;20478;-82
2021/11/28 06:39:50;;;;;;;2.97;2.37;;;5.30;73.40;;;;;;4980632;28;20054;-82
2021/11/28 06:42:16;;;;;;;4.00;3.07;;;5.30;73.30;;;;;;4967233;28;20035;-83
2021/11/28 06:44:42;;;;;;;3.73;3.27;;;5.30;73.30;;;;;;4972565;28;20026;-82
2021/11/28 06:47:08;;;;;;;4.40;3.20;;;5.30;73.30;;;;;;4995182;28;20106;-82
2021/11/28 06:49:34;;;;;;;5.90;4.23;;;5.30;73.40;;;;;;4960869;28;20030;-82
2021/11/28 06:52:01;;;;;;;33.73;18.43;;;5.30;73.40;;;;;;4991552;28;20030;-82
2021/11/28 06:54:26;;;;;;;140.10;52.20;;;5.20;73.40;;;;;;5000486;28;20037;-82
2021/11/28 06:56:52;;;;;;;78.97;34.07;;;5.30;73.40;;;;;;4977244;28;20474;-82
2021/11/28 06:59:20;;;;;;;57.23;27.27;;;5.30;73.40;;;;;;4985104;28;20029;-82
2021/11/28 07:01:48;;;;;;;38.73;18.87;;;5.30;73.40;;;;;;4984832;28;20394;-82
2021/11/28 07:04:13;;;;;;;24.83;14.80;;;5.30;73.40;;;;;;4958709;28;20031;-81
2021/11/28 07:06:39;;;;;;;12.30;8.77;;;5.30;73.40;;;;;;4982115;28;20354;-82
2021/11/28 07:09:05;;;;;;;11.63;8.77;;;5.20;73.40;;;;;;4966653;28;20034;-82
2021/11/28 07:11:31;;;;;;;8.77;7.33;;;5.30;73.40;;;;;;4973685;28;20030;-82
2021/11/28 07:13:56;;;;;;;9.37;7.43;;;5.20;73.30;;;;;;4987107;28;20556;-82
2021/11/28 07:16:22;;;;;;;9.30;7.40;;;5.20;73.20;;;;;;4981009;28;20033;-82
2021/11/28 07:18:48;;;;;;;9.27;7.30;;;5.20;73.30;;;;;;4970699;28;20054;-82
2021/11/28 07:21:15;;;;;;;8.17;6.07;;;5.20;73.80;;;;;;4993081;28;20062;-82
2021/11/28 07:23:41;;;;;;;10.50;6.90;;;5.20;73.20;;;;;;4986222;28;20022;-82
2021/11/28 07:26:08;;;;;;;7.93;6.57;;;5.30;73.30;;;;;;4975362;28;20034;-82
2021/11/28 07:28:34;;;;;;;10.60;6.03;;;5.30;73.30;;;;;;4968035;28;20027;-82
2021/11/28 07:31:01;;;;;;;6.23;4.93;;;5.30;73.20;;;;;;4997329;28;20513;-82
2021/11/28 07:33:27;;;;;;;4.97;4.30;;;5.30;73.10;;;;;;4988289;28;20102;-82
2021/11/28 07:35:52;;;;;;;3.73;3.10;;;5.30;73.10;;;;;;4976662;28;20022;-82
2021/11/28 07:38:18;;;;;;;4.70;3.77;;;5.30;73.60;;;;;;4984452;28;20021;-82
2021/11/28 07:40:44;;;;;;;6.83;4.97;;;5.30;73.00;;;;;;4995463;28;20030;-82
2021/11/28 07:43:11;;;;;;;5.13;4.10;;;5.30;72.90;;;;;;4979845;28;20061;-82
2021/11/28 07:45:37;;;;;;;5.50;4.40;;;5.30;73.00;;;;;;4972562;28;20066;-82
2021/11/28 07:48:03;;;;;;;6.20;4.93;;;5.30;73.00;;;;;;4970771;28;20062;-81
2021/11/28 07:50:29;;;;;;;6.67;4.13;;;5.30;72.80;;;;;;4981406;28;20015;-82
2021/11/28 07:52:55;;;;;;;9.67;5.70;;;5.30;72.90;;;;;;4988011;28;20177;-82
2021/11/28 07:55:21;;;;;;;7.53;5.20;;;5.30;72.80;;;;;;4988838;28;20477;-82
2021/11/28 07:57:47;;;;;;;7.93;5.10;;;5.30;72.90;;;;;;4993567;28;20023;-82
2021/11/28 08:00:13;;;;;;;6.77;4.93;;;5.40;72.80;;;;;;4973399;28;20038;-82
2021/11/28 08:02:39;;;;;;;10.20;5.60;;;5.40;72.70;;;;;;4982063;28;20493;-82
2021/11/28 08:05:07;;;;;;;6.43;4.60;;;5.40;72.70;;;;;;4991169;28;20115;-82
2021/11/28 08:07:32;;;;;;;8.57;5.20;;;5.40;72.60;;;;;;4973504;28;20022;-82
2021/11/28 08:09:58;;;;;;;7.83;5.70;;;5.40;72.60;;;;;;4972081;28;20021;-82
2021/11/28 08:12:25;;;;;;;6.67;5.43;;;5.40;72.70;;;;;;4971769;28;20025;-82
2021/11/28 08:14:51;;;;;;;9.87;6.23;;;5.40;72.80;;;;;;4990889;28;20019;-82
2021/11/28 08:17:17;;;;;;;7.33;4.97;;;5.40;72.50;;;;;;4992355;28;20054;-82
2021/11/28 08:19:43;;;;;;;9.27;6.53;;;5.50;72.40;;;;;;4974774;28;20054;-81
2021/11/28 08:22:09;;;;;;;10.30;7.23;;;5.50;72.50;;;;;;4980112;28;20026;-82
2021/11/28 08:24:35;;;;;;;9.20;7.20;;;5.50;72.40;;;;;;4996927;28;20038;-82
2021/11/28 08:27:01;;;;;;;13.47;7.80;;;5.50;72.30;;;;;;4988096;28;20086;-82
2021/11/28 08:29:28;;;;;;;17.53;11.93;;;5.50;72.20;;;;;;4968715;28;20355;-82
2021/11/28 08:31:54;;;;;;;10.87;8.77;;;5.50;72.30;;;;;;4972096;28;20109;-82
2021/11/28 08:34:20;;;;;;;11.50;7.30;;;5.60;72.20;;;;;;4955690;28;20089;-82
2021/11/28 08:36:47;;;;;;;11.57;8.20;;;5.60;72.20;;;;;;4978541;28;20022;-81
2021/11/28 08:39:12;;;;;;;22.20;8.80;;;5.60;72.20;;;;;;4966472;28;20030;-82
2021/11/28 08:41:39;;;;;;;12.63;7.70;;;5.70;72.30;;;;;;4968165;28;20023;-81
2021/11/28 08:44:06;;;;;;;12.67;9.20;;;5.70;72.10;;;;;;4990205;28;20038;-82
2021/11/28 08:46:32;;;;;;;12.07;7.60;;;5.70;71.90;;;;;;4964715;28;20034;-82
2021/11/28 08:48:58;;;;;;;21.87;12.50;;;5.70;71.90;;;;;;4970076;28;20501;-82
2021/11/28 08:51:28;;;;;;;46.47;21.53;;;5.80;71.90;;;;;;4984742;28;20037;-82
2021/11/28 08:53:55;;;;;;;31.27;18.90;;;5.80;71.80;;;;;;4974307;28;20488;-81
2021/11/28 08:56:23;;;;;;;15.07;8.70;;;5.80;71.80;;;;;;4974466;28;20034;-82
2021/11/28 08:58:49;;;;;;;21.40;12.40;;;5.90;71.70;;;;;;4989023;28;20031;-82
2021/11/28 09:01:15;;;;;;;14.70;9.17;;;5.90;71.40;;;;;;4985737;28;20553;-82
2021/11/28 09:03:41;;;;;;;13.90;9.03;;;6.00;71.30;;;;;;4971062;28;20113;-82
2021/11/28 09:06:08;;;;;;;14.97;10.60;;;6.00;71.30;;;;;;4989018;28;20118;-82
2021/11/28 09:08:37;;;;;;;16.73;10.30;;;6.00;71.30;;;;;;4962814;28;20037;-82
2021/11/28 09:11:04;;;;;;;10.67;8.70;;;6.10;71.20;;;;;;4973122;28;20034;-82
2021/11/28 09:13:35;;;;;;;12.50;9.43;;;6.10;71.10;;;;;;4965023;28;20027;-81
2021/11/28 09:16:01;;;;;;;9.80;8.17;;;6.20;71.00;;;;;;4967169;28;20032;-81
2021/11/28 09:18:33;;;;;;;9.60;8.23;;;6.20;70.90;;;;;;4978506;28;20380;-82
2021/11/28 09:21:00;;;;;;;12.85;10.18;;;6.30;70.90;;;;;;4988916;28;20037;-82
2021/11/28 09:26:11;;;;;;;5.87;5.23;;;6.30;70.70;;;;;;4980919;28;20162;-82
2021/11/28 09:28:38;;;;;;;5.23;3.40;;;6.30;70.60;;;;;;4990081;28;20098;-82
2021/11/28 09:31:05;;;;;;;5.13;2.63;;;6.30;71.10;;;;;;4982710;28;20022;-82
2021/11/28 09:33:31;;;;;;;3.73;2.83;;;6.30;70.40;;;;;;4984771;28;20018;-82
2021/11/28 09:35:57;;;;;;;2.63;2.20;;;6.30;70.10;;;;;;4978951;28;20029;-82
2021/11/28 09:38:23;;;;;;;4.27;2.20;;;6.30;70.10;;;;;;4962558;28;20129;-82
2021/11/28 09:40:50;;;;;;;2.37;1.80;;;6.40;70.00;;;;;;4974229;28;20026;-82
2021/11/28 09:43:18;;;;;;;4.10;1.90;;;6.40;69.80;;;;;;4967381;28;20026;-82
2021/11/28 09:45:46;;;;;;;3.83;1.60;;;6.50;69.70;;;;;;4997352;28;20054;-82
2021/11/28 09:48:12;;;;;;;2.97;1.30;;;6.50;69.40;;;;;;4974015;28;20480;-82
2021/11/28 09:50:38;;;;;;;2.33;1.43;;;6.60;69.30;;;;;;4963973;28;20117;-83
2021/11/28 09:53:05;;;;;;;3.30;1.30;;;6.60;69.20;;;;;;4989024;28;20046;-82
2021/11/28 09:55:32;;;;;;;1.33;0.97;;;6.60;69.10;;;;;;4965801;28;20597;-82
2021/11/28 09:57:58;;;;;;;3.00;1.63;;;6.60;68.90;;;;;;4965109;28;20483;-82
2021/11/28 10:00:24;;;;;;;2.83;2.00;;;6.60;68.90;;;;;;4990079;28;20037;-82
2021/11/28 10:02:50;;;;;;;6.57;3.20;;;6.70;68.90;;;;;;4967348;28;20040;-82
2021/11/28 10:05:16;;;;;;;4.60;2.93;;;6.70;69.10;;;;;;4969870;28;20109;-81
2021/11/28 10:07:45;;;;;;;3.60;1.53;;;6.70;68.40;;;;;;4965293;28;20019;-82
2021/11/28 10:10:13;;;;;;;4.57;2.30;;;6.90;68.50;;;;;;4993949;28;20442;-82
2021/11/28 10:12:45;;;;;;;2.83;1.80;;;7.10;68.30;;;;;;4987068;28;20072;-82
2021/11/28 10:15:19;;;;;;;2.35;1.98;;;7.30;67.80;;;;;;4976370;28;20019;-82
2021/11/28 10:17:45;;;;;;;4.97;3.23;;;7.40;67.60;;;;;;4968819;28;20035;-82
2021/11/28 10:20:19;;;;;;;5.90;3.47;;;7.50;67.30;;;;;;4965392;28;20035;-82
2021/11/28 10:22:46;;;;;;;5.10;4.23;;;7.60;67.10;;;;;;4966624;28;20030;-81
2021/11/28 10:25:25;;;;;;;6.77;4.57;;;7.60;66.90;;;;;;4978425;28;20509;-82
2021/11/28 10:28:05;;;;;;;5.93;4.23;;;7.50;66.40;;;;;;4960018;28;20050;-82
2021/11/28 10:30:35;;;;;;;4.10;3.20;;;7.30;66.40;;;;;;4984381;28;20023;-82
2021/11/28 10:33:12;;;;;;;3.10;2.57;;;7.20;66.80;;;;;;4965355;28;20125;-82
2021/11/28 10:35:58;;;;;;;4.30;3.23;;;7.10;66.70;;;;;;4988769;28;20493;-82
2021/11/28 10:38:36;;;;;;;3.63;2.43;;;7.10;66.70;;;;;;4975333;28;20884;-82
2021/11/28 10:41:17;;;;;;;4.30;2.73;;;7.10;66.70;;;;;;4976656;28;20468;-83
2021/11/28 10:43:42;;;;;;;7.47;2.73;;;7.20;66.80;;;;;;4982685;28;20390;-82
2021/11/28 10:46:22;;;;;;;5.03;2.00;;;7.40;66.60;;;;;;4966622;28;20022;-82
2021/11/28 10:49:03;;;;;;;2.73;1.40;;;7.60;66.00;;;;;;4982245;28;20019;-80
2021/11/28 10:51:28;;;;;;;4.03;1.50;;;7.70;66.20;;;;;;4964068;28;20052;-80
2021/11/28 10:53:54;;;;;;;3.50;1.40;;;7.80;65.30;;;;;;4983467;28;20065;-80
2021/11/28 10:56:20;;;;;;;2.23;1.50;;;8.00;65.20;;;;;;4977803;28;20023;-80
2021/11/28 10:58:46;;;;;;;2.20;1.43;;;8.00;64.40;;;;;;4962471;28;20035;-80
2021/11/28 11:01:13;;;;;;;1.77;1.23;;;8.00;64.50;;;;;;4965346;28;20437;-80
2021/11/28 11:03:47;;;;;;;2.83;1.50;;;7.90;64.60;;;;;;4962179;28;20050;-80
2021/11/28 11:06:20;;;;;;;3.73;1.70;;;8.00;64.50;;;;;;4979105;28;20386;-80
2021/11/28 11:08:46;;;;;;;;;;;8.10;64.20;;;;;;4958570;28;20351;-81
2021/11/28 11:11:15;;;;;;;2.23;1.50;;;8.10;64.30;;;;;;4965285;28;19914;-81
2021/11/28 11:14:00;;;;;;;3.17;1.37;;;8.20;64.00;;;;;;4961560;28;20022;-81
2021/11/28 11:16:36;;;;;;;2.97;1.57;;;8.30;63.70;;;;;;4963838;28;20054;-81
2021/11/28 11:19:28;;;;;;;1.87;1.27;;;8.30;63.30;;;;;;4980013;28;20529;-81
2021/11/28 11:22:00;;;;;;;3.17;1.40;;;8.30;63.20;;;;;;4964153;28;20051;-81
2021/11/28 11:24:26;;;;;;;4.17;1.73;;;8.10;63.30;;;;;;4986668;28;20022;-81
2021/11/28 11:26:52;;;;;;;2.67;1.57;;;8.00;63.40;;;;;;4965914;28;20021;-81
2021/11/28 11:29:18;;;;;;;2.77;1.47;;;7.90;63.30;;;;;;4981161;28;20374;-81
2021/11/28 11:31:54;;;;;;;3.90;2.00;;;7.70;63.30;;;;;;4972631;28;20032;-81
2021/11/28 11:34:28;;;;;;;3.97;1.70;;;7.70;63.10;;;;;;4987794;28;20045;-82
2021/11/28 11:36:58;;;;;;;4.97;1.37;;;7.50;62.80;;;;;;4980006;28;20027;-81
2021/11/28 11:39:27;;;;;;;2.00;1.20;;;7.40;63.10;;;;;;4982692;28;20025;-81
2021/11/28 11:41:54;;;;;;;2.77;1.10;;;7.40;63.40;;;;;;4963961;28;20023;-82
2021/11/28 11:44:24;;;;;;;3.60;1.03;;;7.40;63.10;;;;;;4970141;28;20030;-81
2021/11/28 11:46:50;;;;;;;2.80;1.37;;;7.40;62.90;;;;;;4974338;28;20022;-81
2021/11/28 11:49:17;;;;;;;2.80;1.50;;;7.30;62.90;;;;;;4976315;28;20030;-81
2021/11/28 11:51:43;;;;;;;2.87;1.57;;;7.30;62.90;;;;;;4957857;28;20019;-81
2021/11/28 11:54:18;;;;;;;2.47;1.17;;;7.30;63.30;;;;;;4964763;28;20046;-81
2021/11/28 11:56:46;;;;;;;2.40;1.00;;;7.20;63.20;;;;;;4981900;28;20018;-81
2021/11/28 11:59:28;;;;;;;2.57;1.50;;;7.20;63.20;;;;;;4980899;28;20031;-81
2021/11/28 12:02:05;;;;;;;2.83;1.38;;;7.20;63.10;;;;;;4962481;28;20430;-80
2021/11/28 12:04:46;;;;;;;3.97;0.90;;;7.10;63.50;;;;;;4967975;28;20034;-80
2021/11/28 12:07:12;;;;;;;2.87;1.00;;;7.10;63.40;;;;;;4968385;28;20385;-80
2021/11/28 12:09:39;;;;;;;1.90;1.00;;;7.20;63.70;;;;;;4978614;28;20415;-80
2021/11/28 12:12:12;;;;;;;3.40;1.53;;;7.20;63.60;;;;;;4957739;28;20409;-80
2021/11/28 12:15:24;;;;;;;3.35;0.70;;;7.20;63.50;;;;;;4982461;28;20026;-80
2021/11/28 12:17:52;;;;;;;4.77;2.53;;;7.30;63.30;;;;;;4965329;28;20034;-80
2021/11/28 12:20:44;;;;;;;7.47;5.37;;;7.30;63.30;;;;;;4978591;28;20023;-80
2021/11/28 12:23:32;;;;;;;3.90;2.73;;;7.30;63.50;;;;;;4975033;28;20019;-80
2021/11/28 12:25:58;;;;;;;6.10;2.63;;;7.30;63.60;;;;;;4983886;28;20109;-80
2021/11/28 12:28:25;;;;;;;4.73;1.70;;;7.30;63.80;;;;;;4981903;28;20101;-80
2021/11/28 12:30:55;;;;;;;2.70;1.80;;;7.30;63.90;;;;;;4985135;28;20083;-80
2021/11/28 12:33:51;;;;;;;4.23;1.90;;;7.30;64.00;;;;;;4982823;28;20471;-80
2021/11/28 12:36:35;;;;;;;6.07;2.10;;;7.20;64.10;;;;;;4959373;28;20042;-80
2021/11/28 12:39:03;;;;;;;3.47;1.70;;;7.20;64.30;;;;;;4983533;28;20117;-80
2021/11/28 12:41:54;;;;;;;3.50;1.70;;;7.10;64.40;;;;;;4983827;28;20459;-80
2021/11/28 12:44:23;;;;;;;4.80;1.70;;;7.20;64.30;;;;;;4969480;28;20036;-80
2021/11/28 12:47:01;;;;;;;5.37;1.87;;;7.20;64.30;;;;;;4964915;28;20026;-80
2021/11/28 12:49:29;;;;;;;4.37;1.57;;;7.10;64.10;;;;;;4962008;28;20041;-80
2021/11/28 12:52:17;;;;;;;6.00;2.27;;;7.10;64.20;;;;;;4967864;28;20022;-79
2021/11/28 12:55:02;;;;;;;3.50;1.87;;;7.10;64.10;;;;;;4948049;28;20113;-80
2021/11/28 12:57:28;;;;;;;4.30;2.03;;;7.00;64.40;;;;;;4965823;28;20035;-80
2021/11/28 13:00:22;;;;;;;4.50;1.80;;;7.10;64.40;;;;;;4979242;28;20581;-80
2021/11/28 13:03:10;;;;;;;2.23;1.63;;;7.20;64.20;;;;;;4968226;28;20035;-80
2021/11/28 13:05:46;;;;;;;2.93;1.80;;;7.20;64.00;;;;;;4971186;28;20616;-80
2021/11/28 13:08:12;;;;;;;3.83;1.50;;;7.20;64.00;;;;;;4967008;28;20034;-80
2021/11/28 13:10:47;;;;;;;2.83;1.57;;;7.20;63.90;;;;;;4962321;28;20383;-80
2021/11/28 13:13:18;;;;;;;4.90;1.10;;;7.20;63.80;;;;;;4961476;28;20029;-80
2021/11/28 13:16:12;;;;;;;1.87;1.20;;;7.10;63.70;;;;;;4969371;28;20093;-80
2021/11/28 13:18:46;;;;;;;2.70;1.10;;;7.10;63.50;;;;;;4967633;28;22366;-80
2021/11/28 13:21:22;;;;;;;4.97;2.77;;;7.00;63.30;;;;;;4970782;28;20446;-80
2021/11/28 13:23:50;;;;;;;3.40;2.50;;;7.00;63.10;;;;;;4981594;28;20106;-80
2021/11/28 13:26:19;;;;;;;3.70;2.43;;;7.00;63.10;;;;;;4978918;28;20469;-80
2021/11/28 13:28:46;;;;;;;4.97;2.00;;;7.00;63.30;;;;;;4980917;28;20033;-80
2021/11/28 13:31:20;;;;;;;3.67;2.40;;;7.00;63.40;;;;;;4961242;28;20378;-80
2021/11/28 13:33:51;;;;;;;9.23;4.90;;;7.10;64.00;;;;;;4962244;28;20027;-80
2021/11/28 13:36:17;;;;;;;6.73;4.20;;;7.00;63.40;;;;;;4965640;28;20026;-80
2021/11/28 13:38:54;;;;;;;4.27;3.10;;;7.00;63.50;;;;;;4972727;28;20478;-80
2021/11/28 13:41:25;;;;;;;6.97;4.67;;;7.00;63.60;;;;;;4968530;28;20130;-80
2021/11/28 13:43:58;;;;;;;8.50;4.20;;;7.00;63.70;;;;;;4967896;28;21575;-80
2021/11/28 13:46:28;;;;;;;7.43;3.60;;;7.00;64.20;;;;;;4968076;28;20054;-80
2021/11/28 13:48:57;;;;;;;5.60;3.70;;;6.90;64.00;;;;;;4964497;28;20044;-80
2021/11/28 13:51:53;;;;;;;8.73;5.80;;;6.90;63.90;;;;;;4990743;28;20022;-80
2021/11/28 13:54:37;;;;;;;7.90;5.63;;;6.90;64.10;;;;;;4961124;28;20482;-80
2021/11/28 13:57:21;;;;;;;8.07;5.50;;;6.90;64.20;;;;;;4985171;28;20034;-80
2021/11/28 13:59:49;;;;;;;11.50;8.07;;;6.90;64.20;;;;;;4963268;28;20042;-80
2021/11/28 14:02:26;;;;;;;8.40;5.93;;;6.90;64.40;;;;;;4984130;28;20034;-80
2021/11/28 14:04:52;;;;;;;10.83;4.70;;;6.90;64.50;;;;;;4971513;28;20034;-80
2021/11/28 14:07:22;;;;;;;7.67;4.87;;;6.80;64.60;;;;;;4963598;28;20031;-80
2021/11/28 14:09:51;;;;;;;8.67;5.00;;;6.80;64.80;;;;;;4962116;28;20070;-80
2021/11/28 14:12:39;;;;;;;7.17;4.63;;;6.70;65.10;;;;;;4971422;28;20037;-80
2021/11/28 14:15:31;;;;;;;11.30;4.93;;;6.70;65.10;;;;;;4966258;28;20038;-80
2021/11/28 14:18:09;;;;;;;8.40;4.70;;;6.80;65.20;;;;;;4976292;28;20034;-80
2021/11/28 14:20:42;;;;;;;6.70;4.40;;;6.80;65.20;;;;;;4980735;28;20038;-80
2021/11/28 14:23:08;;;;;;;7.47;4.80;;;6.70;65.30;;;;;;4961638;28;20042;-80
2021/11/28 14:25:41;;;;;;;7.33;4.27;;;6.70;65.30;;;;;;4952751;28;20035;-81
2021/11/28 14:28:08;;;;;;;3.53;2.33;;;6.70;65.30;;;;;;4976934;28;20065;-79
2021/11/28 14:30:56;;;;;;;7.50;3.00;;;6.70;65.20;;;;;;4965702;28;20053;-79
2021/11/28 14:33:36;;;;;;;4.13;1.33;;;6.60;65.10;;;;;;4958672;28;20101;-80
2021/11/28 14:36:20;;;;;;;3.23;1.50;;;6.60;64.90;;;;;;4966171;28;20035;-80
2021/11/28 14:38:51;;;;;;;3.90;1.50;;;6.60;64.60;;;;;;4982820;28;20038;-80
2021/11/28 14:41:21;;;;;;;3.87;1.90;;;6.50;64.70;;;;;;4956571;28;20505;-80
2021/11/28 14:43:46;;;;;;;3.70;2.43;;;6.50;64.80;;;;;;4962202;28;20083;-80